Time;durP1;ratioP1;P1;durP2;ratioP2;P2;SDS_P1;SDS_P2;PMS_P1;PMS_P2;Temp;Humidity;BMP_temperature;BMP_pressure;BME280_temperature;BME280_humidity;BME280_pressure;Samples;Min_cycle;Max_cycle;Signal;HPM_P1;HPM_P2
2022/10/28 00:00:46;;;;;;;;;7.50;4.25;;;;;20.89;63.56;101356.81;5055880;28;45378;-68
2022/10/28 00:03:11;;;;;;;;;4.75;4.75;;;;;20.88;63.59;101348.84;5056163;28;45694;-67
2022/10/28 00:05:36;;;;;;;;;4.00;3.75;;;;;20.85;63.64;101341.84;5055902;28;45277;-68
2022/10/28 00:08:02;;;;;;;;;6.00;6.00;;;;;20.74;63.96;101329.28;5056182;28;46290;-68
2022/10/28 00:10:27;;;;;;;;;4.50;3.75;;;;;20.78;63.84;101327.16;5054551;28;45291;-67
2022/10/28 00:12:53;;;;;;;;;5.75;4.00;;;;;20.48;64.16;101289.19;5055929;28;45559;-68
2022/10/28 00:15:18;;;;;;;;;6.50;6.50;;;;;20.61;64.15;101316.00;5055960;28;45312;-68
2022/10/28 00:17:44;;;;;;;;;6.50;6.50;;;;;20.81;63.89;101346.72;5055351;28;46699;-69
2022/10/28 00:20:09;;;;;;;;;5.75;4.50;;;;;20.80;63.84;101345.00;5055828;28;45280;-67
2022/10/28 00:22:35;;;;;;;;;6.00;6.00;;;;;20.68;64.51;101337.97;5056188;28;45290;-70
2022/10/28 00:25:00;;;;;;;;;6.00;6.00;;;;;20.61;64.44;101334.09;5055393;28;45207;-70
2022/10/28 00:27:25;;;;;;;;;6.25;5.50;;;;;20.70;64.64;101352.25;5055433;28;46236;-70
2022/10/28 00:29:51;;;;;;;;;5.25;3.75;;;;;20.17;64.39;101270.34;5055037;28;45336;-69
2022/10/28 00:32:16;;;;;;;;;7.75;7.75;;;;;20.69;64.39;101360.53;5055761;28;45218;-69
2022/10/28 00:34:41;;;;;;;;;6.00;6.00;;;;;20.69;64.27;101358.72;5055816;28;45243;-68
2022/10/28 00:37:07;;;;;;;;;7.00;4.25;;;;;20.63;64.25;101351.94;5055612;28;47051;-69
2022/10/28 00:39:32;;;;;;;;;4.00;4.00;;;;;20.66;64.86;101364.34;5055362;28;45385;-69
2022/10/28 00:42:02;;;;;;;;;5.00;4.50;;;;;20.67;64.67;101363.38;5054901;28;45377;-69
2022/10/28 00:44:48;;;;;;;;;6.50;4.75;;;;;20.64;64.49;101359.09;5054147;28;45428;-69
2022/10/28 00:47:23;;;;;;;;;5.25;4.00;;;;;20.64;64.69;101350.09;5055260;28;46373;-69
2022/10/28 00:49:51;;;;;;;;;6.25;5.00;;;;;19.82;64.88;101211.31;5055312;28;45283;-69
2022/10/28 00:52:21;;;;;;;;;3.75;3.75;;;;;20.49;64.74;101323.41;5054016;28;45299;-69
2022/10/28 00:54:50;;;;;;;;;4.50;4.50;;;;;20.40;64.78;101302.59;5053737;28;45352;-69
2022/10/28 00:57:20;;;;;;;;;6.00;4.50;;;;;20.60;64.75;101340.56;5054803;28;45510;-72
2022/10/28 00:59:50;;;;;;;;;4.75;4.75;;;;;20.56;65.17;101336.41;5055900;28;45385;-73
2022/10/28 01:02:16;;;;;;;;;7.25;5.75;;;;;20.56;65.02;101339.13;5055675;28;45404;-73
2022/10/28 01:04:42;;;;;;;;;11.00;5.25;;;;;20.54;65.31;101328.41;5037536;28;45627;-73
2022/10/28 01:07:09;;;;;;;;;5.00;5.00;;;;;20.53;65.52;101339.38;5054358;28;47452;-73
2022/10/28 01:09:35;;;;;;;;;6.50;6.00;;;;;20.52;65.56;101335.00;5056185;28;45478;-73
2022/10/28 01:12:31;;;;;;;;;6.25;4.50;;;;;20.45;65.61;101329.28;5059139;28;45341;-73
2022/10/28 01:15:08;;;;;;;;;5.50;4.50;;;;;20.42;65.62;101343.09;5059445;28;45303;-73
2022/10/28 01:17:55;;;;;;;;;6.75;5.25;;;;;20.38;65.52;101342.53;5058775;28;46566;-73
2022/10/28 01:20:26;;;;;;;;;6.75;6.25;;;;;20.38;66.17;101338.94;5059279;28;45421;-73
2022/10/28 01:22:54;;;;;;;;;7.25;6.50;;;;;20.37;66.17;101340.81;5058048;28;45366;-73
2022/10/28 01:25:52;;;;;;;;;5.00;4.50;;;;;20.33;66.15;101340.22;5059552;28;45218;-73
2022/10/28 01:28:53;;;;;;;;;6.00;6.00;;;;;20.32;66.26;101340.38;5016102;28;45719;-73
2022/10/28 01:31:34;;;;;;;;;7.00;6.00;;;;;20.19;66.08;101318.09;5015792;28;45547;-73
2022/10/28 01:34:02;;;;;;;;;5.25;5.25;;;;;20.33;65.84;101333.97;5016254;28;45461;-73
2022/10/28 01:36:49;;;;;;;;;6.00;5.00;;;;;20.30;66.40;101324.25;5016729;28;45454;-73
2022/10/28 01:39:53;;;;;;;;;8.75;5.25;;;;;20.30;66.34;101331.53;5016364;28;45767;-73
2022/10/28 01:42:37;;;;;;;;;8.25;6.50;;;;;20.07;66.38;101288.44;4999785;28;45495;-73
2022/10/28 01:45:23;;;;;;;;;8.50;6.00;;;;;20.27;66.76;101324.56;5016704;28;45319;-73
2022/10/28 01:48:44;;;;;;;;;6.00;4.25;;;;;20.26;66.30;101321.97;5016385;28;45445;-73
2022/10/28 01:51:25;;;;;;;;;5.00;5.00;;;;;20.26;66.62;101321.97;4956510;28;46252;-73
2022/10/28 01:53:56;;;;;;;;;5.50;4.50;;;;;20.28;66.83;101326.25;4957570;28;45285;-73
2022/10/28 01:56:28;;;;;;;;;4.00;4.00;;;;;20.30;66.78;101329.69;4957395;28;45507;-73
2022/10/28 01:58:57;;;;;;;;;7.50;5.25;;;;;20.33;66.33;101318.56;4957856;28;45595;-73
2022/10/28 02:01:24;;;;;;;;;7.75;6.50;;;;;20.34;66.32;101317.56;4957629;28;46242;-73
2022/10/28 02:03:51;;;;;;;;;5.75;5.75;;;;;19.98;66.76;101259.50;4962603;28;45282;-73
2022/10/28 02:06:19;;;;;;;;;5.75;5.75;;;;;20.32;66.24;101324.97;4996749;28;45345;-73
2022/10/28 02:09:03;;;;;;;;;5.25;5.25;;;;;20.29;66.66;101314.41;4996601;28;45463;-73
2022/10/28 02:11:44;;;;;;;;;10.00;5.00;;;;;20.28;66.65;101310.00;4996111;28;45514;-73
2022/10/28 02:14:16;;;;;;;;;9.50;6.00;;;;;20.26;66.66;101312.00;4996375;28;45471;-72
2022/10/28 02:17:05;;;;;;;;;5.50;5.00;;;;;20.22;66.67;101310.56;4996331;28;45422;-73
2022/10/28 02:19:45;;;;;;;;;7.75;6.50;;;;;20.20;66.74;101300.88;4996102;28;45379;-73
2022/10/28 02:22:36;;;;;;;;;5.50;5.50;;;;;20.12;67.21;101309.69;4994988;28;46494;-73
2022/10/28 02:25:08;;;;;;;;;8.75;7.00;;;;;20.13;66.92;101301.41;5021004;28;45455;-73
2022/10/28 02:27:45;;;;;;;;;7.00;6.00;;;;;20.11;67.36;101307.97;5039132;28;45404;-73
2022/10/28 02:30:16;;;;;;;;;4.75;4.75;;;;;20.08;67.01;101298.28;5040232;28;45282;-73
2022/10/28 02:32:47;;;;;;;;;7.00;6.75;;;;;20.06;67.24;101297.56;5040765;28;47523;-73
2022/10/28 02:35:21;;;;;;;;;2.75;2.75;;;;;19.70;67.30;101237.59;5040810;28;45436;-73
2022/10/28 02:37:49;;;;;;;;;6.25;6.25;;;;;19.69;66.99;101249.41;5038728;28;45220;-73
2022/10/28 02:40:20;;;;;;;;;4.50;4.50;;;;;19.99;67.68;101299.97;5038508;28;45408;-73
2022/10/28 02:42:53;;;;;;;;;9.00;8.00;;;;;19.45;67.77;101212.78;5037662;28;46276;-73
2022/10/28 02:45:27;;;;;;;;;4.75;4.75;;;;;19.55;68.00;101228.19;5037473;28;45335;-73
2022/10/28 02:47:59;;;;;;;;;4.75;4.75;;;;;19.96;67.93;101296.69;5037911;28;45341;-73
2022/10/28 02:50:32;;;;;;;;;6.25;6.00;;;;;19.93;67.61;101294.25;5037960;28;45350;-73
2022/10/28 02:52:59;;;;;;;;;4.75;4.75;;;;;19.85;67.66;101285.97;5037837;28;47046;-73
2022/10/28 02:55:33;;;;;;;;;4.00;4.00;;;;;19.82;68.31;101287.94;5037802;28;45362;-72
2022/10/28 02:57:59;;;;;;;;;5.25;5.25;;;;;19.59;67.69;101249.41;5044791;28;45463;-73
2022/10/28 03:00:24;;;;;;;;;6.50;5.50;;;;;19.86;68.31;101296.66;5057606;28;45473;-73
2022/10/28 03:02:50;;;;;;;;;9.00;6.75;;;;;19.63;68.66;101253.53;5057540;28;46369;-73
2022/10/28 03:05:16;;;;;;;;;5.25;5.25;;;;;19.49;68.02;101237.72;5057795;28;45468;-73
2022/10/28 03:07:41;;;;;;;;;6.75;6.75;;;;;19.47;68.24;101237.81;5057880;28;45455;-73
2022/10/28 03:10:07;;;;;;;;;4.25;4.25;;;;;19.72;68.07;101278.94;5057474;28;45390;-73
2022/10/28 03:12:33;;;;;;;;;6.75;6.75;;;;;19.83;68.22;101294.25;5057396;28;45756;-73
2022/10/28 03:14:58;;;;;;;;;5.25;5.25;;;;;19.82;68.54;101284.41;5057152;28;45248;-73
2022/10/28 03:17:24;;;;;;;;;5.50;4.25;;;;;19.82;68.00;101282.53;5057609;28;45233;-73
2022/10/28 03:19:49;;;;;;;;;3.00;3.00;;;;;19.79;68.34;101277.38;5057534;28;45262;-73
2022/10/28 03:22:14;;;;;;;;;7.25;5.50;;;;;19.80;68.20;101278.25;5055791;28;48049;-73
2022/10/28 03:24:40;;;;;;;;;5.25;5.25;;;;;19.83;67.98;101278.84;5057722;28;45341;-73
2022/10/28 03:27:05;;;;;;;;;8.25;6.25;;;;;19.75;68.11;101259.69;5057520;28;45318;-73
2022/10/28 03:29:30;;;;;;;;;5.00;5.00;;;;;19.82;68.16;101269.00;5056262;28;45353;-73
2022/10/28 03:31:56;;;;;;;;;7.25;6.25;;;;;19.82;68.16;101269.00;5057446;28;46270;-73
2022/10/28 03:34:21;;;;;;;;;5.25;5.25;;;;;19.83;67.87;101254.47;5057024;28;45330;-73
2022/10/28 03:36:46;;;;;;;;;7.00;7.00;;;;;19.53;68.13;101201.25;5057247;28;45468;-73
2022/10/28 03:39:12;;;;;;;;;6.25;5.00;;;;;19.65;68.00;101221.81;5056252;28;45425;-73
2022/10/28 03:41:37;;;;;;;;;7.00;6.00;;;;;19.87;68.25;101256.91;5057152;28;45400;-73
2022/10/28 03:44:03;;;;;;;;;5.25;5.25;;;;;19.86;67.78;101255.22;5057049;28;45440;-74
2022/10/28 03:46:28;;;;;;;;;6.25;5.75;;;;;19.70;67.93;101223.22;5057173;28;45377;-73
2022/10/28 03:48:53;;;;;;;;;7.00;5.75;;;;;19.83;67.72;101248.22;5056956;28;45398;-73
2022/10/28 03:51:18;;;;;;;;;5.25;3.50;;;;;19.81;68.26;101252.91;5056828;28;46462;-73
2022/10/28 03:53:44;;;;;;;;;4.75;4.25;;;;;19.81;68.28;101250.19;5055673;28;45355;-73
2022/10/28 03:56:11;;;;;;;;;7.00;6.00;;;;;19.76;68.04;101253.31;5057360;28;45357;-73
2022/10/28 03:58:36;;;;;;;;;6.00;5.50;;;;;19.71;68.08;101239.31;5057474;28;45421;-72
2022/10/28 04:01:01;;;;;;;;;6.25;6.25;;;;;19.71;68.50;101236.63;5056689;28;45321;-74
2022/10/28 04:03:27;;;;;;;;;7.50;4.25;;;;;19.69;68.43;101243.16;5057146;28;45380;-73
2022/10/28 04:05:52;;;;;;;;;6.00;5.50;;;;;19.64;68.36;101241.72;5056783;28;45298;-73
2022/10/28 04:08:19;;;;;;;;;5.00;5.00;;;;;19.40;68.81;101196.09;5056962;28;45238;-73
2022/10/28 04:10:45;;;;;;;;;7.00;6.00;;;;;19.64;68.70;101251.72;5056634;28;45316;-73
2022/10/28 04:13:10;;;;;;;;;6.50;6.50;;;;;19.46;68.98;101236.13;5056336;28;45309;-73
2022/10/28 04:15:36;;;;;;;;;6.25;6.25;;;;;19.56;68.73;101244.28;5072140;28;45392;-73
2022/10/28 04:18:02;;;;;;;;;5.00;5.00;;;;;19.54;69.17;101258.94;5056644;28;45381;-73
2022/10/28 04:20:28;;;;;;;;;7.25;6.25;;;;;19.42;68.97;101240.09;5054858;28;46146;-73
2022/10/28 04:22:53;;;;;;;;;6.00;6.00;;;;;19.53;68.89;101246.38;5056279;28;45488;-73
2022/10/28 04:25:20;;;;;;;;;5.75;5.75;;;;;19.53;68.70;101240.97;5056281;28;45362;-73
2022/10/28 04:27:46;;;;;;;;;6.75;4.50;;;;;19.50;68.75;101252.91;5054966;28;45413;-75
2022/10/28 04:30:13;;;;;;;;;6.00;6.00;;;;;19.47;68.55;101254.06;5057959;28;45437;-75
2022/10/28 04:32:39;;;;;;;;;4.00;4.00;;;;;19.08;68.37;101196.25;5043564;28;45292;-74
2022/10/28 04:35:05;;;;;;;;;6.50;3.75;;;;;19.49;68.34;101246.66;5038467;28;45216;-76
2022/10/28 04:37:30;;;;;;;;;8.00;5.50;;;;;19.33;68.23;101222.84;5038293;28;45414;-76
2022/10/28 04:39:56;;;;;;;;;6.25;5.25;;;;;19.49;67.78;101249.38;5037160;28;45469;-75
2022/10/28 04:42:22;;;;;;;;;4.50;4.50;;;;;19.50;67.52;101251.09;5038520;28;45338;-75
2022/10/28 04:44:48;;;;;;;;;5.50;5.00;;;;;19.40;68.02;101219.59;5039643;28;45434;-73
2022/10/28 04:47:13;;;;;;;;;7.50;6.75;;;;;19.42;67.83;101215.75;5041221;28;45374;-75
2022/10/28 04:49:38;;;;;;;;;10.75;6.00;;;;;19.49;67.59;101230.44;5053335;28;45402;-75
2022/10/28 04:52:04;;;;;;;;;4.75;4.50;;;;;19.13;67.40;101178.63;5038065;28;45401;-76
2022/10/28 04:54:29;;;;;;;;;10.25;5.75;;;;;19.54;67.27;101253.50;5038554;28;45346;-76
2022/10/28 04:56:55;;;;;;;;;4.50;3.75;;;;;19.12;67.20;101171.50;5037618;28;45447;-74
2022/10/28 04:59:20;;;;;;;;;4.25;3.25;;;;;19.52;67.06;101250.09;5071255;28;46259;-74
2022/10/28 05:01:45;;;;;;;;;6.50;4.00;;;;;19.55;66.81;101236.28;5057650;28;45302;-76
2022/10/28 05:04:11;;;;;;;;;7.00;5.75;;;;;19.29;66.88;101193.50;5057957;28;45361;-76
2022/10/28 05:06:36;;;;;;;;;6.00;4.00;;;;;19.05;66.84;101158.69;5055451;28;45270;-71
2022/10/28 05:09:01;;;;;;;;;6.25;5.00;;;;;19.55;66.75;101234.44;5054803;28;46219;-71
2022/10/28 05:11:27;;;;;;;;;6.25;5.25;;;;;19.51;66.48;101230.28;5055286;28;45368;-71
2022/10/28 05:13:52;;;;;;;;;7.00;6.25;;;;;19.53;66.73;101231.03;5055347;28;45237;-71
2022/10/28 05:16:18;;;;;;;;;4.00;4.00;;;;;19.37;66.36;101201.78;5055132;28;45392;-71
2022/10/28 05:18:43;;;;;;;;;5.25;5.25;;;;;19.60;66.58;101247.56;5054694;28;45438;-71
2022/10/28 05:21:09;;;;;;;;;7.75;5.75;;;;;19.34;66.08;101202.06;5054996;28;45301;-68
2022/10/28 05:23:34;;;;;;;;;6.75;6.00;;;;;19.07;66.31;101152.16;5055160;28;45228;-68
2022/10/28 05:26:00;;;;;;;;;5.00;5.00;;;;;18.81;65.17;101106.63;5055027;28;45387;-68
2022/10/28 05:28:25;;;;;;;;;5.50;3.50;;;;;19.60;65.28;101234.03;5054733;28;45587;-68
2022/10/28 05:30:51;;;;;;;;;6.25;5.25;;;;;19.39;65.37;101193.53;5054793;28;45432;-68
2022/10/28 05:33:16;;;;;;;;;4.50;4.50;;;;;19.67;65.16;101241.44;5053488;28;45422;-67
2022/10/28 05:35:41;;;;;;;;;4.00;3.00;;;;;19.29;64.89;101177.28;5054881;28;45455;-68
2022/10/28 05:38:07;;;;;;;;;7.00;5.00;;;;;19.67;64.89;101246.84;5054506;28;45915;-68
2022/10/28 05:40:32;;;;;;;;;5.50;5.50;;;;;19.62;65.19;101241.03;5054790;28;45224;-68
2022/10/28 05:42:59;;;;;;;;;4.75;4.75;;;;;19.66;65.38;101247.88;5054941;28;45503;-68
2022/10/28 05:45:25;;;;;;;;;3.50;3.00;;;;;19.66;64.86;101233.47;5055053;28;45547;-68
2022/10/28 05:47:50;;;;;;;;;11.25;5.00;;;;;18.95;65.14;101121.66;5054649;28;45342;-68
2022/10/28 05:50:17;;;;;;;;;5.50;4.75;;;;;19.64;65.26;101243.59;5054655;28;45422;-68
2022/10/28 05:52:51;;;;;;;;;5.50;3.50;;;;;19.58;64.97;101230.59;5055422;28;45744;-68
2022/10/28 05:55:19;;;;;;;;;6.25;6.25;;;;;19.59;65.03;101241.28;5054804;28;45523;-68
2022/10/28 05:57:48;;;;;;;;;7.00;5.00;;;;;19.52;64.90;101228.47;5056671;28;45456;-68
2022/10/28 06:00:15;;;;;;;;;9.50;7.00;;;;;19.59;64.78;101248.56;5058337;28;45362;-67
2022/10/28 06:02:41;;;;;;;;;6.75;6.75;;;;;19.11;64.94;101168.94;5058165;28;45365;-68
2022/10/28 06:05:08;;;;;;;;;5.50;5.25;;;;;19.49;65.06;101241.25;5073588;28;45414;-68
2022/10/28 06:07:36;;;;;;;;;8.50;5.50;;;;;19.49;64.84;101249.38;5057832;28;45322;-67
2022/10/28 06:10:04;;;;;;;;;7.25;5.75;;;;;19.47;65.00;101255.91;5057740;28;45475;-68
2022/10/28 06:12:29;;;;;;;;;6.00;4.25;;;;;19.36;65.29;101237.94;5056609;28;45434;-68
2022/10/28 06:14:55;;;;;;;;;5.00;4.00;;;;;19.17;65.26;101209.81;5057742;28;45287;-68
2022/10/28 06:17:20;;;;;;;;;9.00;6.00;;;;;19.45;65.44;101256.06;5057747;28;45384;-68
2022/10/28 06:19:45;;;;;;;;;7.00;6.00;;;;;19.44;65.14;101270.56;5057595;28;45385;-67
2022/10/28 06:22:11;;;;;;;;;7.25;4.25;;;;;19.34;64.99;101239.94;5057777;28;45272;-67
2022/10/28 06:24:37;;;;;;;;;6.25;4.00;;;;;19.47;64.81;101261.31;5057756;28;45599;-67
2022/10/28 06:27:02;;;;;;;;;8.75;6.00;;;;;19.47;64.91;101274.84;5057400;28;47120;-67
2022/10/28 06:29:28;;;;;;;;;1.00;1.00;;;;;19.24;64.97;101214.69;5057737;28;45333;-67
2022/10/28 06:31:53;;;;;;;;;6.50;4.75;;;;;19.44;64.83;101273.28;5056054;28;45318;-67
2022/10/28 06:34:18;;;;;;;;;12.00;10.00;;;;;19.31;64.80;101251.00;5057475;28;45322;-67
2022/10/28 06:36:44;;;;;;;;;5.75;4.25;;;;;19.20;63.61;101221.34;5056412;28;46162;-67
2022/10/28 06:39:09;;;;;;;;;6.50;5.50;;;;;19.44;64.15;101267.84;5055884;28;45453;-67
2022/10/28 06:41:34;;;;;;;;;5.25;4.50;;;;;19.10;64.42;101205.94;5057201;28;45334;-68
2022/10/28 06:44:00;;;;;;;;;7.00;5.25;;;;;19.46;64.61;101267.72;5056103;28;45423;-67
2022/10/28 06:46:26;;;;;;;;;3.25;3.25;;;;;19.42;64.84;101277.97;5057265;28;46168;-67
2022/10/28 06:48:55;;;;;;;;;7.25;5.00;;;;;19.47;64.76;101285.66;5055907;28;45701;-67
2022/10/28 06:51:21;;;;;;;;;4.00;3.00;;;;;19.46;64.28;101292.06;5057504;28;45480;-68
2022/10/28 06:53:51;;;;;;;;;6.25;5.00;;;;;19.46;64.71;101292.06;5057269;28;45564;-67
2022/10/28 06:56:17;;;;;;;;;9.00;5.25;;;;;19.45;64.51;101290.38;5057086;28;45789;-67
2022/10/28 06:58:42;;;;;;;;;5.50;4.75;;;;;19.27;64.44;101260.38;5056883;28;45367;-67
2022/10/28 07:01:08;;;;;;;;;8.00;5.25;;;;;19.45;64.53;101317.44;5056866;28;45331;-67
2022/10/28 07:03:33;;;;;;;;;5.25;5.25;;;;;19.27;64.42;101282.03;5055909;28;45462;-67
2022/10/28 07:05:59;;;;;;;;;7.75;7.00;;;;;19.45;64.76;101312.88;5072474;28;46387;-67
2022/10/28 07:08:28;;;;;;;;;8.50;5.75;;;;;19.50;64.81;101326.84;5056476;28;45459;-67
2022/10/28 07:10:55;;;;;;;;;4.50;4.50;;;;;19.56;64.83;101321.91;5056921;28;45251;-67
2022/10/28 07:13:21;;;;;;;;;4.00;4.00;;;;;19.54;64.62;101332.81;5056943;28;45214;-67
2022/10/28 07:15:57;;;;;;;;;5.00;5.00;;;;;19.53;64.33;101330.25;5055147;28;45287;-67
2022/10/28 07:18:24;;;;;;;;;6.75;4.75;;;;;19.52;64.37;101334.81;5056875;28;45352;-65
2022/10/28 07:20:49;;;;;;;;;4.00;3.75;;;;;19.47;64.21;101339.78;5056867;28;45431;-65
2022/10/28 07:23:15;;;;;;;;;8.00;7.00;;;;;18.99;63.78;101235.78;5057517;28;45420;-65
2022/10/28 07:25:40;;;;;;;;;7.00;5.00;;;;;19.34;64.02;101299.44;5056623;28;47272;-65
2022/10/28 07:28:06;;;;;;;;;5.75;4.25;;;;;19.70;63.35;101347.72;5056555;28;45356;-65
2022/10/28 07:30:31;;;;;;;;;6.00;6.00;;;;;19.59;63.63;101316.19;5056752;28;45345;-65
2022/10/28 07:33:00;;;;;;;;;4.50;4.50;;;;;19.90;63.48;101354.09;5056857;28;45336;-64
2022/10/28 07:35:29;;;;;;;;;5.00;4.50;;;;;19.99;61.64;101331.63;5056427;28;47299;-65
2022/10/28 07:37:56;;;;;;;;;3.50;2.50;;;;;19.81;61.29;101313.34;5056185;28;45409;-64
2022/10/28 07:40:22;;;;;;;;;2.50;2.50;;;;;20.24;61.16;101349.19;5056354;28;45475;-66
2022/10/28 07:42:47;;;;;;;;;8.75;5.25;;;;;20.28;60.84;101364.16;5056466;28;45412;-65
2022/10/28 07:45:13;;;;;;;;;4.75;4.75;;;;;20.40;60.04;101351.34;5037935;28;47182;-65
2022/10/28 07:47:38;;;;;;;;;8.75;4.50;;;;;20.53;60.04;101371.91;5055107;28;45332;-65
2022/10/28 07:50:05;;;;;;;;;6.25;5.00;;;;;20.61;59.53;101343.13;5054925;28;45347;-65
2022/10/28 07:52:32;;;;;;;;;5.75;5.75;;;;;20.75;59.29;101368.13;5056401;28;45376;-65
2022/10/28 07:54:58;;;;;;;;;7.50;5.75;;;;;20.74;59.05;101358.25;5056041;28;45874;-65
2022/10/28 07:57:23;;;;;;;;;4.50;4.50;;;;;20.81;58.25;101354.84;5056330;28;45757;-65
2022/10/28 07:59:48;;;;;;;;;8.25;5.00;;;;;21.03;58.07;101369.09;5055915;28;45322;-65
2022/10/28 08:02:19;;;;;;;;;5.00;1.75;;;;;20.86;57.76;101318.31;5056024;28;45372;-65
2022/10/28 08:04:45;;;;;;;;;6.00;4.33;;;;;21.15;57.35;101365.22;5055230;28;46441;-65
2022/10/28 08:07:11;;;;;;;;;6.00;5.00;;;;;21.27;57.34;101393.06;5071225;28;45901;-65
2022/10/28 08:09:37;;;;;;;;;3.25;3.00;;;;;21.27;58.17;101397.59;5054933;28;45411;-65
2022/10/28 08:12:03;;;;;;;;;6.25;4.75;;;;;21.31;57.95;101399.03;5054916;28;45330;-65
2022/10/28 08:14:28;;;;;;;;;4.75;3.50;;;;;21.34;57.59;101398.75;5055585;28;45378;-66
2022/10/28 08:16:54;;;;;;;;;5.25;4.25;;;;;21.36;57.52;101407.59;5071191;28;45354;-65
2022/10/28 08:19:19;;;;;;;;;1.75;1.75;;;;;21.38;56.77;101399.31;5055274;28;45390;-65
2022/10/28 08:21:46;;;;;;;;;3.50;2.75;;;;;21.09;57.29;101345.97;5055841;28;45447;-64
2022/10/28 08:24:11;;;;;;;;;6.50;4.75;;;;;21.51;57.24;101402.56;5055703;28;46364;-64
2022/10/28 08:26:36;;;;;;;;;4.75;4.00;;;;;21.41;57.67;101380.88;5056053;28;45388;-65
2022/10/28 08:29:02;;;;;;;;;5.00;5.00;;;;;21.62;56.93;101423.28;5054147;28;45438;-65
2022/10/28 08:31:27;;;;;;;;;6.00;5.00;;;;;21.67;57.00;101410.13;5055832;28;45382;-65
2022/10/28 08:33:52;;;;;;;;;6.50;5.25;;;;;21.30;57.63;101337.66;5055711;28;46288;-65
2022/10/28 08:36:17;;;;;;;;;9.00;7.00;;;;;21.87;56.92;101413.63;5055335;28;46398;-64
2022/10/28 08:38:44;;;;;;;;;9.00;5.25;;;;;21.90;56.40;101420.63;5055586;28;45381;-65
2022/10/28 08:41:30;;;;;;;;;5.50;5.00;;;;;21.97;56.58;101413.56;5055489;28;45476;-65
2022/10/28 08:44:16;;;;;;;;;4.75;4.00;;;;;22.12;56.42;101420.25;5055288;28;46283;-65
2022/10/28 08:47:00;;;;;;;;;5.00;4.00;;;;;22.28;55.08;101432.31;5055210;28;45592;-66
2022/10/28 08:49:29;;;;;;;;;4.50;4.50;;;;;22.45;55.87;101449.72;5055431;28;45346;-65
2022/10/28 08:52:04;;;;;;;;;7.75;5.75;;;;;22.45;55.20;101447.84;5055615;28;45365;-65
2022/10/28 08:54:46;;;;;;;;;15.75;10.25;;;;;22.53;55.91;101455.25;5055354;28;46496;-65
2022/10/28 08:57:32;;;;;;;;;6.00;6.00;;;;;22.45;55.35;101455.16;5055038;28;45242;-65
2022/10/28 08:59:58;;;;;;;;;4.00;1.50;;;;;22.42;55.00;101469.03;5054200;28;45336;-65
2022/10/28 09:02:27;;;;;;;;;7.00;5.25;;;;;22.16;55.88;101418.06;5055116;28;45389;-65
2022/10/28 09:05:20;;;;;;;;;6.75;5.75;;;;;22.01;55.60;101366.09;5055038;28;45333;-65
2022/10/28 09:07:45;;;;;;;;;7.50;6.50;;;;;22.58;55.58;101458.34;5054605;28;45433;-65
2022/10/28 09:10:14;;;;;;;;;5.50;4.50;;;;;22.78;54.94;101459.09;5054887;28;45282;-64
2022/10/28 09:13:01;;;;;;;;;8.50;7.25;;;;;22.83;54.73;101458.63;5055481;28;45410;-64
2022/10/28 09:15:29;;;;;;;;;10.75;10.25;;;;;22.92;53.74;101478.59;5055183;28;46884;-65
2022/10/28 09:18:14;;;;;;;;;7.00;5.50;;;;;22.85;54.84;101462.91;5055047;28;45488;-65
2022/10/28 09:20:50;;;;;;;;;6.00;5.25;;;;;22.91;54.38;101472.28;5055229;28;45428;-65
2022/10/28 09:23:23;;;;;;;;;5.25;5.25;;;;;23.03;54.67;101481.09;5055308;28;45383;-65
2022/10/28 09:26:05;;;;;;;;;6.50;5.00;;;;;23.00;54.81;101479.53;5054552;28;45647;-67
2022/10/28 09:28:37;;;;;;;;;9.25;7.50;;;;;22.95;54.05;101483.72;5054777;28;45393;-66
2022/10/28 09:31:18;;;;;;;;;11.00;7.00;;;;;22.97;54.71;101479.84;5054752;28;45538;-66
2022/10/28 09:34:01;;;;;;;;;7.75;6.00;;;;;23.21;54.39;101491.16;5058660;28;45628;-65
2022/10/28 09:36:33;;;;;;;;;7.00;6.00;;;;;23.74;53.74;101492.94;5058157;28;46516;-66
2022/10/28 09:39:02;;;;;;;;;5.75;5.00;;;;;23.89;53.19;101492.38;5058213;28;45356;-66
2022/10/28 09:41:42;;;;;;;;;4.50;3.75;;;;;24.08;52.81;101494.88;5058023;28;45495;-65
2022/10/28 09:44:13;;;;;;;;;6.25;6.25;;;;;24.90;51.65;101488.94;5058384;28;45381;-65
2022/10/28 09:46:39;;;;;;;;;7.00;6.00;;;;;24.84;50.37;101435.88;5057066;28;47074;-66
2022/10/28 09:49:30;;;;;;;;;6.00;5.00;;;;;24.95;50.69;101485.69;5058172;28;45278;-67
2022/10/28 09:52:03;;;;;;;;;6.25;5.50;;;;;24.97;51.06;101453.59;5058158;28;45278;-65
2022/10/28 09:54:33;;;;;;;;;7.00;6.00;;;;;24.89;50.21;101483.63;5058188;28;45480;-65
2022/10/28 09:57:00;;;;;;;;;4.25;4.25;;;;;24.50;51.71;101471.41;5040276;28;47391;-65
2022/10/28 09:59:26;;;;;;;;;7.00;5.00;;;;;24.63;50.15;101493.63;5057883;28;45401;-65
2022/10/28 10:01:51;;;;;;;;;4.50;3.50;;;;;24.75;52.44;101504.22;5058021;28;45318;-66
2022/10/28 10:04:23;;;;;;;;;7.25;6.00;;;;;24.65;50.44;101504.38;5056493;28;45351;-66
2022/10/28 10:07:13;;;;;;;;;7.25;5.50;;;;;24.77;51.43;101511.22;5057784;28;46567;-66
2022/10/28 10:09:39;;;;;;;;;6.00;6.00;;;;;24.85;51.86;101513.97;5056641;28;45360;-66
2022/10/28 10:12:09;;;;;;;;;10.00;6.25;;;;;24.70;51.53;101504.72;5056397;28;45453;-66
2022/10/28 10:14:45;;;;;;;;;5.25;5.25;;;;;24.70;52.35;101512.91;5057871;28;45581;-66
2022/10/28 10:17:28;;;;;;;;;5.50;5.50;;;;;24.66;51.26;101520.56;5057776;28;46332;-66
2022/10/28 10:19:59;;;;;;;;;9.25;6.50;;;;;24.66;51.95;101519.72;5057772;28;45499;-66
2022/10/28 10:22:30;;;;;;;;;5.50;5.50;;;;;24.35;52.40;101479.34;5057599;28;45314;-66
2022/10/28 10:24:55;;;;;;;;;7.00;6.75;;;;;24.64;52.21;101532.66;5057232;28;45449;-65
2022/10/28 10:27:20;;;;;;;;;9.50;8.00;;;;;24.63;52.58;101530.94;5056040;28;45672;-65
2022/10/28 10:29:51;;;;;;;;;6.50;6.25;;;;;24.64;52.75;101533.50;5057579;28;45440;-65
2022/10/28 10:32:23;;;;;;;;;7.75;6.00;;;;;24.73;52.77;101531.69;5057624;28;45261;-64
2022/10/28 10:34:56;;;;;;;;;5.25;5.00;;;;;24.73;51.22;101523.50;5056118;28;45350;-64
2022/10/28 10:37:23;;;;;;;;;8.25;6.25;;;;;24.72;52.60;101520.94;5057118;28;45478;-65
2022/10/28 10:40:02;;;;;;;;;14.00;7.00;;;;;24.73;52.38;101526.22;5057216;28;45344;-66
2022/10/28 10:42:27;;;;;;;;;8.00;7.00;;;;;24.66;52.99;101520.56;5056591;28;45294;-66
2022/10/28 10:45:01;;;;;;;;;6.00;6.00;;;;;24.77;52.70;101529.47;5055709;28;45478;-65
2022/10/28 10:47:26;;;;;;;;;6.50;6.50;;;;;24.58;52.10;101495.97;5055959;28;47326;-66
2022/10/28 10:49:53;;;;;;;;;7.75;6.75;;;;;24.45;51.75;101493.69;5056926;28;45385;-65
2022/10/28 10:52:24;;;;;;;;;6.75;5.25;;;;;24.76;52.46;101546.84;5056977;28;45456;-65
2022/10/28 10:55:36;;;;;;;;;9.50;8.50;;;;;24.81;53.12;101550.78;5057078;28;45474;-64
2022/10/28 10:58:03;;;;;;;;;6.25;6.25;;;;;24.82;52.49;101547.06;5056732;28;45679;-65
2022/10/28 11:00:42;;;;;;;;;10.25;7.50;;;;;24.82;53.17;101547.06;5056999;28;45378;-65
2022/10/28 11:03:26;;;;;;;;;11.00;8.00;;;;;25.01;53.04;101561.44;5055935;28;45386;-65
2022/10/28 11:05:55;;;;;;;;;8.00;6.75;;;;;25.03;52.63;101549.31;5056793;28;45437;-65
2022/10/28 11:08:33;;;;;;;;;6.25;6.00;;;;;25.08;52.90;101562.47;5056462;28;46036;-65
2022/10/28 11:11:34;;;;;;;;;9.00;9.00;;;;;24.80;51.67;101510.88;5056665;28;45863;-65
2022/10/28 11:14:03;;;;;;;;;8.50;7.25;;;;;25.17;52.43;101572.38;4975161;28;45427;-65
2022/10/28 11:16:28;;;;;;;;;7.00;5.50;;;;;25.15;52.07;101573.56;4975140;28;45414;-65
2022/10/28 11:18:54;;;;;;;;;10.50;8.75;;;;;25.27;52.26;101591.34;4974957;28;45684;-65
2022/10/28 11:21:54;;;;;;;;;6.50;5.50;;;;;25.15;51.57;101571.69;4974973;28;45450;-65
2022/10/28 11:24:29;;;;;;;;;7.50;7.00;;;;;25.40;52.53;101584.56;4896328;29;45510;-66
2022/10/28 11:27:09;;;;;;;;;8.50;7.00;;;;;25.46;51.51;101592.94;4897607;29;45362;-67
2022/10/28 11:29:34;;;;;;;;;7.25;6.25;;;;;25.19;51.55;101534.00;4897274;29;46402;-66
2022/10/28 11:32:00;;;;;;;;;6.00;6.00;;;;;25.62;52.33;101586.63;4897465;29;45427;-66
2022/10/28 11:34:28;;;;;;;;;8.50;5.50;;;;;25.72;51.77;101583.72;4897672;28;45503;-64
2022/10/28 11:37:15;;;;;;;;;5.50;5.50;;;;;25.66;51.70;101582.53;4897506;29;45597;-66